createdAt,value
2022-12-16T00:00:06.652Z,99334.56
2022-12-16T00:02:33.276Z,99336.25
2022-12-16T00:04:59.809Z,99340.50
2022-12-16T00:07:26.400Z,99341.38
2022-12-16T00:09:52.965Z,99343.06
2022-12-16T00:12:19.418Z,99343.91
2022-12-16T00:14:45.778Z,99346.47
2022-12-16T00:17:12.256Z,99350.72
2022-12-16T00:19:38.673Z,99354.13
2022-12-16T00:22:05.566Z,99355.81
2022-12-16T00:24:32.149Z,99360.91
2022-12-16T00:26:58.629Z,99368.56
2022-12-16T00:29:25.089Z,99366.88
2022-12-16T00:31:52.254Z,99369.41
2022-12-16T00:34:19.222Z,99371.13
2022-12-16T00:36:45.669Z,99370.25
2022-12-16T00:39:12.089Z,99376.22
2022-12-16T00:41:38.942Z,99376.22
2022-12-16T00:44:05.428Z,99377.91
2022-12-16T00:46:32.012Z,99382.16
2022-12-16T00:48:58.694Z,99380.44
2022-12-16T00:51:25.216Z,99384.72
2022-12-16T00:53:51.862Z,99392.34
2022-12-16T00:56:19.388Z,99393.19
2022-12-16T00:58:46.211Z,99398.25
2022-12-16T01:01:12.979Z,99392.34
2022-12-16T01:03:40.076Z,99399.94
2022-12-16T01:06:12.874Z,99399.94
2022-12-16T01:08:39.721Z,99411.00
2022-12-16T01:11:06.689Z,99405.09
2022-12-16T01:13:33.429Z,99408.50
2022-12-16T01:16:01.500Z,99417.81
2022-12-16T01:18:28.374Z,99411.88
2022-12-16T01:20:54.830Z,99418.69
2022-12-16T01:23:21.349Z,99411.88
2022-12-16T01:26:00.119Z,99406.81
2022-12-16T01:28:29.995Z,99416.16
2022-12-16T01:31:18.517Z,99420.38
2022-12-16T01:34:05.448Z,99426.34
2022-12-16T01:36:51.954Z,99423.81
2022-12-16T01:39:39.002Z,99428.91
2022-12-16T01:42:28.770Z,99431.44
2022-12-16T01:45:32.928Z,99432.31
2022-12-16T01:48:19.430Z,99421.25
2022-12-16T01:50:46.260Z,99431.44
2022-12-16T01:53:13.549Z,99422.06
2022-12-16T01:55:46.712Z,99416.13
2022-12-16T01:58:22.902Z,99421.22
2022-12-16T02:00:50.467Z,99417.00
2022-12-16T02:03:17.587Z,99416.06
2022-12-16T02:05:47.000Z,99416.97
2022-12-16T02:08:17.935Z,99408.47
2022-12-16T02:10:44.408Z,99414.41
2022-12-16T02:13:33.197Z,99418.69
2022-12-16T02:16:24.888Z,99417.78
2022-12-16T02:19:10.810Z,99420.25
2022-12-16T02:21:56.042Z,99413.47
2022-12-16T02:24:57.396Z,99417.75
2022-12-16T02:27:48.709Z,99417.78
2022-12-16T02:30:41.390Z,99411.00
2022-12-16T02:33:17.529Z,99411.84
2022-12-16T02:35:56.436Z,99413.53
2022-12-16T02:38:42.532Z,99411.00
2022-12-16T02:41:33.774Z,99416.91
2022-12-16T02:44:04.681Z,99418.59
2022-12-16T02:46:34.095Z,99417.75
2022-12-16T02:49:09.122Z,99422.84
2022-12-16T02:51:38.912Z,99429.66
2022-12-16T02:54:09.496Z,99436.44
2022-12-16T02:56:42.104Z,99436.47
2022-12-16T02:59:36.377Z,99444.06
2022-12-16T03:02:16.151Z,99437.28
2022-12-16T03:04:49.707Z,99437.22
2022-12-16T03:07:21.876Z,99438.97
2022-12-16T03:09:49.946Z,99444.84
2022-12-16T03:12:20.159Z,99441.44
2022-12-16T03:14:50.489Z,99444.75
2022-12-16T03:17:19.845Z,99439.63
2022-12-16T03:19:56.228Z,99440.47
2022-12-16T03:22:29.123Z,99445.53
2022-12-16T03:24:55.784Z,99443.00
2022-12-16T03:27:31.418Z,99442.22
2022-12-16T03:30:09.929Z,99447.25
2022-12-16T03:32:59.496Z,99438.78
2022-12-16T03:35:33.267Z,99450.66
2022-12-16T03:38:03.429Z,99443.13
2022-12-16T03:40:32.688Z,99446.50
2022-12-16T03:43:02.466Z,99457.44
2022-12-16T03:45:37.228Z,99461.66
2022-12-16T03:48:07.238Z,99462.53
2022-12-16T03:50:34.924Z,99461.66
2022-12-16T03:53:02.208Z,99461.63
2022-12-16T03:55:29.277Z,99478.59
2022-12-16T03:57:57.054Z,99475.25
2022-12-16T04:00:24.596Z,99482.91
2022-12-16T04:02:51.311Z,99487.94
2022-12-16T04:05:18.318Z,99491.38
2022-12-16T04:07:45.282Z,99490.56
2022-12-16T04:10:11.703Z,99492.91
2022-12-16T04:12:57.490Z,99500.38
2022-12-16T04:15:43.068Z,99504.59
2022-12-16T04:18:36.902Z,99508.03
2022-12-16T04:21:22.829Z,99512.34
2022-12-16T04:24:12.121Z,99514.84
2022-12-16T04:26:57.464Z,99515.72
2022-12-16T04:29:24.556Z,99528.41
2022-12-16T04:31:52.355Z,99535.13
2022-12-16T04:34:25.696Z,99539.03
2022-12-16T04:37:15.983Z,99540.06
2022-12-16T04:40:01.445Z,99542.59
2022-12-16T04:42:47.090Z,99550.16
2022-12-16T04:45:32.511Z,99548.13
2022-12-16T04:48:18.527Z,99555.94
2022-12-16T04:51:04.155Z,99555.03
2022-12-16T04:53:50.371Z,99563.59
2022-12-16T04:56:35.183Z,99565.09
2022-12-16T04:59:20.776Z,99568.38
2022-12-16T05:02:05.956Z,99568.47
2022-12-16T05:04:51.381Z,99567.41
2022-12-16T05:07:38.468Z,99571.81
2022-12-16T05:10:25.718Z,99571.09
2022-12-16T05:13:14.579Z,99576.13
2022-12-16T05:16:00.129Z,99585.44
2022-12-16T05:18:45.266Z,99589.69
2022-12-16T05:21:31.028Z,99584.50
2022-12-16T05:24:16.580Z,99590.47
2022-12-16T05:27:01.999Z,99594.72
2022-12-16T05:29:47.110Z,99599.88
2022-12-16T05:32:32.176Z,99603.28
2022-12-16T05:35:17.453Z,99606.56
2022-12-16T05:38:02.892Z,99611.63
2022-12-16T05:40:48.834Z,99621.81
2022-12-16T05:43:34.638Z,99620.22
2022-12-16T05:46:20.029Z,99610.84
2022-12-16T05:49:05.626Z,99624.44
2022-12-16T05:51:51.215Z,99621.09
2022-12-16T05:54:36.883Z,99638.97
2022-12-16T05:57:22.067Z,99637.31
2022-12-16T06:00:07.467Z,99644.94
2022-12-16T06:02:56.863Z,99658.75
2022-12-16T06:05:42.510Z,99658.97
2022-12-16T06:08:27.586Z,99670.81
2022-12-16T06:11:12.966Z,99678.28
2022-12-16T06:13:58.097Z,99672.22
2022-12-16T06:16:43.558Z,99675.47
2022-12-16T06:19:28.739Z,99672.03
2022-12-16T06:22:13.822Z,99688.63
2022-12-16T06:24:58.966Z,99688.03
2022-12-16T06:27:44.400Z,99683.81
2022-12-16T06:30:29.738Z,99696.03
2022-12-16T06:33:15.224Z,99701.97
2022-12-16T06:36:00.574Z,99713.59
2022-12-16T06:38:45.910Z,99712.38
2022-12-16T06:41:31.056Z,99710.25
2022-12-16T06:44:16.418Z,99724.47
2022-12-16T06:47:01.472Z,99727.63
2022-12-16T06:49:46.958Z,99729.69
2022-12-16T06:52:32.128Z,99739.66
2022-12-16T06:55:17.891Z,99744.34
2022-12-16T06:58:06.756Z,99744.47
2022-12-16T07:00:55.486Z,99753.81
2022-12-16T07:03:41.401Z,99755.59
2022-12-16T07:06:27.430Z,99763.34
2022-12-16T07:09:20.731Z,99765.75
2022-12-16T07:12:05.881Z,99770.88
2022-12-16T07:14:50.937Z,99776.56
2022-12-16T07:17:36.415Z,99769.06
2022-12-16T07:20:22.353Z,99785.97
2022-12-16T07:23:14.607Z,99788.22
2022-12-16T07:26:02.734Z,99789.28
2022-12-16T07:28:47.891Z,99787.69
2022-12-16T07:31:33.127Z,99802.84
2022-12-16T07:34:18.589Z,99796.81
2022-12-16T07:37:03.768Z,99806.69
2022-12-16T07:39:54.485Z,99810.09
2022-12-16T07:42:40.221Z,99812.41
2022-12-16T07:45:25.983Z,99822.69
2022-12-16T07:48:11.183Z,99824.53
2022-12-16T07:50:57.417Z,99821.91
2022-12-16T07:53:42.582Z,99832.09
2022-12-16T07:56:28.521Z,99829.59
2022-12-16T07:59:13.562Z,99837.84
2022-12-16T08:01:58.897Z,99847.78
2022-12-16T08:04:44.339Z,99853.72
2022-12-16T08:07:29.437Z,99860.75
2022-12-16T08:10:14.646Z,99870.22
2022-12-16T08:12:59.993Z,99866.97
2022-12-16T08:15:44.949Z,99866.38
2022-12-16T08:18:30.031Z,99865.56
2022-12-16T08:21:15.155Z,99869.91
2022-12-16T08:24:00.260Z,99874.09
2022-12-16T08:26:45.377Z,99869.34
2022-12-16T08:29:46.016Z,99877.22
2022-12-16T08:32:33.346Z,99883.69
2022-12-16T08:35:19.164Z,99880.66
2022-12-16T08:38:09.038Z,99883.03
2022-12-16T08:41:00.738Z,99889.22
2022-12-16T08:43:45.906Z,99885.47
2022-12-16T08:46:31.366Z,99895.19
2022-12-16T08:52:06.671Z,99900.72
2022-12-16T08:54:51.963Z,99910.13
2022-12-16T08:57:37.422Z,99915.31
2022-12-16T09:00:25.378Z,99925.84
2022-12-16T09:03:15.400Z,99935.31
2022-12-16T09:06:01.317Z,99936.91
2022-12-16T09:08:46.989Z,99934.84
2022-12-16T09:11:32.155Z,99941.56
2022-12-16T09:14:17.518Z,99938.34
2022-12-16T09:17:03.279Z,99955.19
2022-12-16T09:19:48.407Z,99964.09
2022-12-16T09:22:33.741Z,99962.72
2022-12-16T09:25:18.779Z,99957.66
2022-12-16T09:28:08.352Z,99963.69
2022-12-16T09:30:54.575Z,99961.28
2022-12-16T09:33:41.159Z,99966.72
2022-12-16T09:36:26.786Z,99964.31
2022-12-16T09:39:11.930Z,99968.38
2022-12-16T09:42:01.157Z,99972.06
2022-12-16T09:45:03.110Z,99975.63
2022-12-16T09:47:59.811Z,99971.53
2022-12-16T09:50:48.636Z,99967.44
2022-12-16T09:53:38.444Z,99964.06
2022-12-16T09:56:32.615Z,99965.75
2022-12-16T09:59:21.214Z,99967.63
2022-12-16T10:02:07.140Z,99968.38
2022-12-16T10:04:52.274Z,99974.53
2022-12-16T10:07:41.294Z,99971.16
2022-12-16T10:10:42.911Z,99976.25
2022-12-16T10:13:40.310Z,99961.78
2022-12-16T10:16:47.162Z,99965.19
2022-12-16T10:20:17.257Z,99972.00
2022-12-16T10:23:41.522Z,99972.88
2022-12-16T10:26:54.552Z,99974.59
2022-12-16T10:29:59.386Z,99972.91
2022-12-16T10:33:01.299Z,99975.47
2022-12-16T10:35:51.534Z,99972.88
2022-12-16T10:38:58.261Z,99971.19
2022-12-16T10:41:48.339Z,99967.75
2022-12-16T10:45:16.660Z,99971.97
2022-12-16T10:48:02.206Z,99975.41
2022-12-16T10:50:47.671Z,99974.47
2022-12-16T10:53:36.768Z,99974.50
2022-12-16T10:56:43.497Z,99972.00
2022-12-16T10:59:29.199Z,99979.56
2022-12-16T11:02:24.424Z,99974.31
2022-12-16T11:05:09.921Z,99988.75
2022-12-16T11:07:57.718Z,99987.59
2022-12-16T11:10:56.093Z,99986.59
2022-12-16T11:13:52.009Z,99981.88
2022-12-16T11:16:43.033Z,99989.59
2022-12-16T11:19:43.729Z,99987.88
2022-12-16T11:22:34.095Z,99997.72
2022-12-16T11:25:37.627Z,99990.19
2022-12-16T11:28:29.162Z,99991.81
2022-12-16T11:31:18.437Z,99986.56
2022-12-16T11:34:04.783Z,99980.78
2022-12-16T11:36:52.029Z,99990.56
2022-12-16T11:39:41.074Z,99993.31
2022-12-16T11:42:35.729Z,99988.09
2022-12-16T11:45:23.826Z,99998.06
2022-12-16T11:48:17.100Z,99997.09
2022-12-16T11:51:15.784Z,99997.88
2022-12-16T11:54:14.161Z,100001.03
2022-12-16T11:57:02.911Z,100001.41
2022-12-16T11:59:58.958Z,100011.84
2022-12-16T12:02:53.686Z,100001.78
2022-12-16T12:06:00.556Z,100009.50
2022-12-16T12:09:10.509Z,100009.88
2022-12-16T12:12:06.493Z,100008.41
2022-12-16T12:14:58.182Z,100012.19
2022-12-16T12:18:00.681Z,100021.09
2022-12-16T12:21:07.837Z,100022.47
2022-12-16T12:24:13.997Z,100019.69
2022-12-16T12:27:16.180Z,100032.63
2022-12-16T12:30:16.207Z,100030.16
2022-12-16T12:33:19.952Z,100032.28
2022-12-16T12:36:21.693Z,100040.22
2022-12-16T12:39:20.120Z,100039.28
2022-12-16T12:42:27.304Z,100048.50
2022-12-16T12:45:39.023Z,100048.91
2022-12-16T12:48:34.280Z,100057.50
2022-12-16T12:51:29.556Z,100060.78
2022-12-16T12:54:59.937Z,100057.66
2022-12-16T12:57:47.035Z,100057.53
2022-12-16T13:00:38.828Z,100066.66
2022-12-16T13:03:49.605Z,100075.00
2022-12-16T13:06:36.830Z,100074.91
2022-12-16T13:09:40.656Z,100079.38
2022-12-16T13:12:25.931Z,100077.75
2022-12-16T13:15:29.528Z,100086.53
2022-12-16T13:18:17.912Z,100084.16
2022-12-16T13:21:04.039Z,100079.56
2022-12-16T13:23:52.312Z,100085.72
2022-12-16T13:26:39.986Z,100090.75
2022-12-16T13:29:33.776Z,100086.16
2022-12-16T13:32:23.707Z,100097.59
2022-12-16T13:35:23.954Z,100104.28
2022-12-16T13:38:24.211Z,100100.06
2022-12-16T13:41:21.130Z,100105.50
2022-12-16T13:44:17.581Z,100114.84
2022-12-16T13:47:10.768Z,100121.63
2022-12-16T13:49:56.447Z,100123.53
2022-12-16T13:52:56.267Z,100124.00
2022-12-16T13:55:56.975Z,100124.16
2022-12-16T13:58:42.567Z,100126.94
2022-12-16T14:01:31.530Z,100127.88
2022-12-16T14:04:19.513Z,100140.03
2022-12-16T14:07:05.290Z,100143.66
2022-12-16T14:09:54.224Z,100142.03
2022-12-16T14:13:00.149Z,100145.47
2022-12-16T14:16:10.052Z,100148.06
2022-12-16T14:19:19.191Z,100163.50
2022-12-16T14:22:10.828Z,100163.47
2022-12-16T14:24:57.036Z,100169.47
2022-12-16T14:27:43.237Z,100172.91
2022-12-16T14:30:44.113Z,100182.31
2022-12-16T14:33:47.248Z,100178.88
2022-12-16T14:36:47.187Z,100180.59
2022-12-16T14:39:40.609Z,100188.28
2022-12-16T14:42:42.773Z,100196.81
2022-12-16T14:45:47.882Z,100201.06
2022-12-16T14:48:52.208Z,100207.00
2022-12-16T14:51:49.612Z,100206.16
2022-12-16T14:54:41.446Z,100212.06
2022-12-16T14:57:47.701Z,100218.97
2022-12-16T15:00:33.476Z,100230.06
2022-12-16T15:03:37.674Z,100243.63
2022-12-16T15:06:26.700Z,100241.03
2022-12-16T15:09:21.748Z,100240.13
2022-12-16T15:12:13.165Z,100243.47
2022-12-16T15:14:59.385Z,100247.78
2022-12-16T15:18:09.654Z,100240.94
2022-12-16T15:21:02.591Z,100250.09
2022-12-16T15:23:51.697Z,100249.28
2022-12-16T15:26:43.014Z,100257.00
2022-12-16T15:29:46.647Z,100261.13
2022-12-16T15:32:52.853Z,100273.97
2022-12-16T15:35:44.312Z,100275.63
2022-12-16T15:38:42.203Z,100282.56
2022-12-16T15:41:49.239Z,100288.50
2022-12-16T15:44:40.826Z,100291.75
2022-12-16T15:47:44.501Z,100291.00
2022-12-16T15:50:34.745Z,100297.06
2022-12-16T15:53:58.107Z,100295.16
2022-12-16T15:56:46.654Z,100301.88
2022-12-16T15:59:50.161Z,100302.53
2022-12-16T16:02:45.808Z,100311.13
2022-12-16T16:05:38.116Z,100309.44
2022-12-16T16:08:23.787Z,100316.13
2022-12-16T16:11:09.584Z,100326.19
2022-12-16T16:13:58.032Z,100323.69
2022-12-16T16:16:48.075Z,100336.50
2022-12-16T16:19:44.671Z,100337.38
2022-12-16T16:22:35.580Z,100327.19
2022-12-16T16:25:21.266Z,100339.09
2022-12-16T16:28:06.470Z,100331.38
2022-12-16T16:30:52.116Z,100333.06
2022-12-16T16:33:37.532Z,100339.84
2022-12-16T16:36:33.882Z,100344.00
2022-12-16T16:39:26.676Z,100343.94
2022-12-16T16:42:13.561Z,100347.88
2022-12-16T16:44:58.742Z,100351.44
2022-12-16T16:47:44.364Z,100353.94
2022-12-16T16:50:33.466Z,100365.00
2022-12-16T16:53:18.661Z,100369.28
2022-12-16T16:56:03.973Z,100380.47
2022-12-16T16:58:52.548Z,100381.13
2022-12-16T17:01:38.608Z,100388.84
2022-12-16T17:04:24.809Z,100393.94
2022-12-16T17:07:10.016Z,100393.78
2022-12-16T17:09:56.155Z,100396.34
2022-12-16T17:12:49.640Z,100406.25
2022-12-16T17:15:41.441Z,100400.38
2022-12-16T17:18:27.613Z,100407.16
2022-12-16T17:21:15.242Z,100405.25
2022-12-16T17:24:00.949Z,100406.94
2022-12-16T17:26:45.982Z,100410.38
2022-12-16T17:29:40.690Z,100407.78
2022-12-16T17:32:46.292Z,100407.78
2022-12-16T17:35:31.993Z,100420.53
2022-12-16T17:38:17.169Z,100414.41
2022-12-16T17:41:02.637Z,100420.22
2022-12-16T17:43:47.845Z,100425.31
2022-12-16T17:46:33.402Z,100424.44
2022-12-16T17:49:18.688Z,100432.06
2022-12-16T17:52:03.938Z,100431.16
2022-12-16T17:55:06.137Z,100440.53
2022-12-16T17:57:52.200Z,100444.78
2022-12-16T18:00:37.972Z,100450.47
2022-12-16T18:03:23.424Z,100445.44
2022-12-16T18:06:15.311Z,100452.84
2022-12-16T18:09:00.911Z,100461.09
2022-12-16T18:11:46.206Z,100462.09
2022-12-16T18:14:32.233Z,100462.56
2022-12-16T18:17:17.455Z,100473.81
2022-12-16T18:20:02.384Z,100472.69
2022-12-16T18:22:48.030Z,100471.94
2022-12-16T18:25:33.217Z,100483.38
2022-12-16T18:28:18.738Z,100478.91
2022-12-16T18:31:03.820Z,100477.19
2022-12-16T18:33:49.224Z,100481.59
2022-12-16T18:36:34.335Z,100484.25
2022-12-16T18:39:19.885Z,100485.28
2022-12-16T18:42:05.613Z,100496.44
2022-12-16T18:44:59.228Z,100505.03
2022-12-16T18:47:48.006Z,100503.25
2022-12-16T18:50:37.748Z,100508.25
2022-12-16T18:53:24.551Z,100510.06
2022-12-16T18:56:38.047Z,100512.56
2022-12-16T18:59:23.369Z,100517.53
2022-12-16T19:02:09.023Z,100520.75
2022-12-16T19:04:54.256Z,100523.28
2022-12-16T19:07:39.731Z,100536.50
2022-12-16T19:10:25.440Z,100537.56
2022-12-16T19:13:14.933Z,100539.09
2022-12-16T19:16:00.317Z,100545.91
2022-12-16T19:18:45.779Z,100551.09
2022-12-16T19:21:30.974Z,100556.28
2022-12-16T19:24:16.322Z,100554.66
2022-12-16T19:27:02.043Z,100552.72
2022-12-16T19:29:47.466Z,100560.41
2022-12-16T19:32:32.700Z,100568.06
2022-12-16T19:35:18.248Z,100567.84
2022-12-16T19:38:03.437Z,100578.03
2022-12-16T19:40:49.084Z,100575.91
2022-12-16T19:43:34.854Z,100584.13
2022-12-16T19:46:37.653Z,100589.13
2022-12-16T19:49:22.963Z,100589.22
2022-12-16T19:52:08.139Z,100590.00
2022-12-16T19:54:56.118Z,100588.44
2022-12-16T19:57:41.458Z,100601.00
2022-12-16T20:00:29.151Z,100608.31
2022-12-16T20:03:14.480Z,100612.03
2022-12-16T20:05:59.576Z,100611.16
2022-12-16T20:08:45.142Z,100612.75
2022-12-16T20:11:30.251Z,100612.97
2022-12-16T20:14:15.992Z,100610.56
2022-12-16T20:17:01.589Z,100620.50
2022-12-16T20:19:47.515Z,100624.28
2022-12-16T20:22:32.830Z,100627.69
2022-12-16T20:25:18.360Z,100629.38
2022-12-16T20:28:03.578Z,100630.13
2022-12-16T20:30:48.879Z,100628.72
2022-12-16T20:33:34.621Z,100636.19
2022-12-16T20:36:21.730Z,100642.31
2022-12-16T20:39:09.845Z,100636.88
2022-12-16T20:41:56.275Z,100648.31
2022-12-16T20:44:41.586Z,100651.00
2022-12-16T20:47:26.856Z,100653.88
2022-12-16T20:50:12.337Z,100658.13
2022-12-16T20:52:57.626Z,100664.44
2022-12-16T20:55:43.061Z,100668.72
2022-12-16T20:58:28.230Z,100670.41
2022-12-16T21:01:14.310Z,100674.78
2022-12-16T21:03:59.461Z,100675.41
2022-12-16T21:06:44.797Z,100686.78
2022-12-16T21:09:29.659Z,100688.91
2022-12-16T21:12:15.050Z,100685.66
2022-12-16T21:15:00.418Z,100694.34
2022-12-16T21:17:45.611Z,100704.13
2022-12-16T21:20:31.110Z,100696.09
2022-12-16T21:23:18.405Z,100697.91
2022-12-16T21:26:04.118Z,100701.31
2022-12-16T21:28:49.459Z,100711.22
2022-12-16T21:31:34.706Z,100718.19
2022-12-16T21:34:19.951Z,100707.91
2022-12-16T21:37:05.425Z,100713.44
2022-12-16T21:39:50.733Z,100721.75
2022-12-16T21:42:38.606Z,100722.13
2022-12-16T21:45:26.785Z,100732.75
2022-12-16T21:48:12.864Z,100733.81
2022-12-16T21:50:58.444Z,100742.97
2022-12-16T21:53:43.931Z,100745.59
2022-12-16T21:56:29.835Z,100750.69
2022-12-16T21:59:15.169Z,100759.06
2022-12-16T22:02:01.168Z,100762.31
2022-12-16T22:04:46.428Z,100768.88
2022-12-16T22:07:34.432Z,100768.94
2022-12-16T22:10:19.981Z,100775.84
2022-12-16T22:13:05.057Z,100781.22
2022-12-16T22:15:50.307Z,100778.31
2022-12-16T22:18:36.454Z,100787.19
2022-12-16T22:21:24.156Z,100791.44
2022-12-16T22:24:10.160Z,100790.53
2022-12-16T22:26:56.647Z,100798.78
2022-12-16T22:29:42.606Z,100808.94
2022-12-16T22:32:27.959Z,100810.47
2022-12-16T22:35:13.058Z,100818.63
2022-12-16T22:37:58.735Z,100819.38
2022-12-16T22:40:43.873Z,100826.09
2022-12-16T22:43:32.387Z,100832.41
2022-12-16T22:46:18.525Z,100824.03
2022-12-16T22:49:05.491Z,100833.38
2022-12-16T22:51:51.348Z,100829.56
2022-12-16T22:54:37.698Z,100832.28
2022-12-16T22:57:25.854Z,100827.75
2022-12-16T23:00:12.686Z,100833.44
2022-12-16T23:02:57.675Z,100843.72
2022-12-16T23:05:42.982Z,100849.56
2022-12-16T23:08:28.240Z,100855.72
2022-12-16T23:11:15.241Z,100852.41
2022-12-16T23:14:01.244Z,100862.63
2022-12-16T23:16:46.446Z,100863.16
2022-12-16T23:19:31.974Z,100868.91
2022-12-16T23:22:17.302Z,100862.22
2022-12-16T23:25:02.451Z,100875.69
2022-12-16T23:27:48.121Z,100869.31
2022-12-16T23:30:33.482Z,100865.91
2022-12-16T23:33:21.811Z,100872.09
2022-12-16T23:36:07.254Z,100857.56
2022-12-16T23:38:53.332Z,100868.41
2022-12-16T23:41:39.103Z,100864.28
2022-12-16T23:44:24.424Z,100870.78
2022-12-16T23:47:10.009Z,100866.50
2022-12-16T23:49:56.513Z,100880.63
2022-12-16T23:52:43.186Z,100873.22
2022-12-16T23:55:28.770Z,100878.75
2022-12-16T23:58:19.704Z,100881.34
